• Join FlightAware (Why Join?)
  • Login
  • US Flag 
02:34AM EDT


 

Airport Tracker/Info


-or-


 

Live Flight TrackerFlight Track Log ✈ UAL4550 ✈ 20-Apr-2013 ✈ KLEX - KIAH

Flight Track Log - Related Links

Times and Time Zones

All times are in EDT time to prevent confusion due to time zone crossing. See the UAL4550 flight status page for this flight to view local times or setup timezone preferences in your user account.

Time Position Orientation Groundspeed Altitude Reporting Facility
EDT Latitude Longitude Course Direction KTS MPH feet Rate Location/Type
05:53PM 38.0550 -84.5819 241° Southwest 157 181 36,000  Level Indianapolis Center
05:55PM 38.0889 -84.6075 329° Northwest 207 238 4,400 -14,040 Descending Indianapolis Center
05:56PM 38.0631 -84.6875 248° West 238 274 7,300 2,820 Climbing Indianapolis Center
05:57PM 37.8575 -85.0332 241° Southwest  Level FlightAware Approximate
05:57PM 38.0300 -84.7678 242° Southwest 251 289 10,300  Level Indianapolis Center
05:58PM 37.8139 -85.1418 247° West  Level FlightAware Approximate
05:58PM 37.9947 -84.8569 243° Southwest 276 318 11,600  Level Indianapolis Center
05:59PM 37.7710 -85.2612 241° Southwest  Level FlightAware Approximate
05:59PM 37.9450 -84.9778 242° Southwest 319 367 13,300  Level Indianapolis Center
06:00PM 37.9014 -85.0844 243° Southwest 337 388 14,800 1,440 Climbing Indianapolis Center
06:01PM 37.8564 -85.1933 242° Southwest 346 398 16,300 1,440 Climbing Indianapolis Center
06:02PM 37.8133 -85.3017 243° Southwest 346 398 17,800 1,260 Climbing Indianapolis Center
06:03PM 37.7675 -85.4111 242° Southwest 350 403 19,000 1,260 Climbing Indianapolis Center
06:04PM 37.7228 -85.5197 243° Southwest 350 403 20,500 1,440 Climbing Indianapolis Center
06:05PM 37.6789 -85.6272 243° Southwest 355 409 22,000 1,320 Climbing Indianapolis Center
06:06PM 37.6325 -85.7389 242° Southwest 358 412 23,300 1,080 Climbing Indianapolis Center
06:07PM 37.5856 -85.8531 243° Southwest 363 418 24,300 1,020 Climbing Indianapolis Center
06:08PM 37.5300 -85.9839 242° Southwest 367 422 25,400 1,020 Climbing Indianapolis Center
06:09PM 37.4819 -86.1000 242° Southwest 370 426 26,400 1,020 Climbing Indianapolis Center
06:10PM 37.4339 -86.2133 242° Southwest 366 421 27,500 1,020 Climbing Indianapolis Center
06:10PM 37.4083 -86.2733 242° Southwest 365 420 28,000 960 Climbing Memphis Center
06:11PM 37.3639 -86.3828 243° Southwest 365 420 29,000 960 Climbing Memphis Center
06:12PM 37.3153 -86.4919 241° Southwest 360 414 30,000 960 Climbing Memphis Center
06:13PM 37.2669 -86.6064 242° Southwest 360 414 31,000 960 Climbing Memphis Center
06:14PM 37.2203 -86.7206 243° Southwest 365 420 32,000 480 Climbing Memphis Center
06:15PM 37.1656 -86.8456 241° Southwest 365 420 32,000  Level Memphis Center
06:16PM 37.1144 -86.9622 241° Southwest 376 433 32,000 180 Level Memphis Center
06:17PM 37.0656 -87.0786 242° Southwest 381 438 32,400 720 Climbing Memphis Center
06:18PM 37.0144 -87.1950 241° Southwest 388 447 33,500 1,200 Climbing Memphis Center
06:19PM 36.9672 -87.3061 242° Southwest 378 435 34,900 1,200 Climbing Memphis Center
06:20PM 36.9178 -87.4169 241° Southwest 373 429 36,000 540 Climbing Memphis Center
06:21PM 36.8683 -87.5303 241° Southwest 373 429 36,000  Level Memphis Center
06:22PM 36.8169 -87.6486 242° Southwest 389 448 36,000  Level Memphis Center
06:23PM 36.7653 -87.7669 241° Southwest 394 453 36,000  Level Memphis Center
06:24PM 36.7133 -87.8800 240° Southwest 394 453 36,000  Level Memphis Center
06:25PM 36.6614 -87.9981 241° Southwest 387 445 36,000  Level Memphis Center
06:26PM 36.6114 -88.1131 242° Southwest 382 440 36,000  Level Memphis Center
06:27PM 36.5614 -88.2231 241° Southwest 382 440 36,000  Level Memphis Center
06:28PM 36.5092 -88.3406 241° Southwest 382 440 36,000  Level Memphis Center
06:29PM 36.4586 -88.4553 241° Southwest 382 440 36,000  Level Memphis Center
06:30PM 36.4042 -88.5700 239° Southwest 382 440 36,000  Level Memphis Center
06:31PM 36.3578 -88.6717 240° Southwest 382 440 36,000 240 Level Memphis Center
06:32PM 36.3069 -88.7833 241° Southwest 382 440 36,500 300 Climbing Memphis Center
06:33PM 36.2542 -88.8978 240° Southwest 382 440 36,600 -300 Climbing Memphis Center
06:34PM 36.1928 -88.9992 233° Southwest 382 440 36,000 -300 Descending Memphis Center
06:35PM 36.1144 -89.0928 224° Southwest 382 440 36,000  Level Memphis Center
06:36PM 36.0406 -89.1917 227° Southwest 388 447 36,000  Level Memphis Center
06:37PM 35.9664 -89.2850 226° Southwest 388 447 36,000  Level Memphis Center
06:38PM 35.8772 -89.3631 215° Southwest 393 452 36,000  Level Memphis Center
06:39PM 35.7861 -89.4358 213° Southwest 398 458 36,000  Level Memphis Center
06:40PM 35.6947 -89.5108 214° Southwest 398 458 36,000  Level Memphis Center
06:41PM 35.5992 -89.5631 204° Southwest 383 441 36,000  Level Memphis Center
06:42PM 35.4994 -89.6175 204° Southwest 383 441 36,000  Level Memphis Center
06:43PM 35.4269 -89.7072 225° Southwest 364 419 36,000  Level Memphis Center
06:44PM 35.3586 -89.8072 230° Southwest 382 440 36,000  Level Memphis Center
06:45PM 35.2839 -89.9069 227° Southwest 387 445 36,000  Level Memphis Center
06:46PM 35.2175 -90.0039 230° Southwest 387 445 36,000  Level Memphis Center
06:47PM 35.1447 -90.1031 228° Southwest 387 445 36,000  Level Memphis Center
06:48PM 35.0719 -90.2022 228° Southwest 387 445 36,000  Level Memphis Center
06:49PM 35.0011 -90.2989 228° Southwest 387 445 36,000  Level Memphis Center
06:50PM 34.9239 -90.4028 228° Southwest 380 437 36,000  Level Memphis Center
06:51PM 34.8528 -90.4989 228° Southwest 385 443 36,000  Level Memphis Center
06:52PM 34.7819 -90.5947 228° Southwest 380 437 36,000  Level Memphis Center
06:53PM 34.7106 -90.6906 228° Southwest 385 443 36,000  Level Memphis Center
06:54PM 34.6394 -90.7861 228° Southwest 385 443 36,000  Level Memphis Center
06:55PM 34.5681 -90.8842 229° Southwest 385 443 36,000  Level Memphis Center
06:56PM 34.4967 -90.9772 227° Southwest 385 443 36,000  Level Memphis Center
06:57PM 34.4275 -91.0747 229° Southwest 385 443 36,000  Level Memphis Center
06:58PM 34.3558 -91.1672 227° Southwest 385 443 36,000  Level Memphis Center
06:59PM 34.2842 -91.2622 228° Southwest 385 443 36,000  Level Memphis Center
07:00PM 34.2125 -91.3569 228° Southwest 385 443 36,000  Level Memphis Center
07:01PM 34.1514 -91.4389 228° Southwest 380 437 36,000  Level Memphis Center
07:02PM 34.0797 -91.5308 227° Southwest 374 430 36,000  Level Memphis Center
07:03PM 34.0119 -91.6225 228° Southwest 374 430 36,000  Level Memphis Center
07:04PM 33.9419 -91.7167 228° Southwest 374 430 36,000  Level Memphis Center
07:07PM 33.7900 -91.9156 227° Southwest 361 415 36,000  Level Fort Worth Center
07:08PM 33.7208 -92.0072 228° Southwest 366 421 36,000  Level Fort Worth Center
07:09PM 33.6478 -92.0992 226° Southwest 372 428 36,000  Level Fort Worth Center
07:10PM 33.5700 -92.1861 223° Southwest 377 434 36,000  Level Fort Worth Center
07:11PM 33.4631 -92.2222 196° South 382 440 36,000  Level Fort Worth Center
07:12PM 33.3494 -92.2561 194° South 398 458 36,000  Level Fort Worth Center
07:13PM 33.2361 -92.2900 194° South 408 470 36,000  Level Fort Worth Center
07:14PM 33.1250 -92.3264 195° South 421 484 36,000  Level Fort Worth Center
07:15PM 33.0114 -92.3575 193° South 421 484 36,000  Level Fort Worth Center
07:16PM 32.9000 -92.3911 194° South 416 479 36,000  Level Fort Worth Center
07:17PM 32.7908 -92.4269 195° South 411 473 36,000  Level Fort Worth Center
07:18PM 32.6794 -92.4603 194° South 416 479 36,000  Level Fort Worth Center
07:20PM 32.4614 -92.5292 195° South 413 475 36,000  Level Houston Center
07:21PM 32.3497 -92.5622 194° South 413 475 36,000  Level Houston Center
07:22PM 32.2358 -92.5944 193° South 418 481 36,000  Level Houston Center
07:23PM 32.1033 -92.6367 195° South 412 474 36,000 -480 Level Houston Center
07:24PM 31.9911 -92.6708 194° South 414 476 35,100 -960 Descending Houston Center
07:25PM 31.9053 -92.7439 216° Southwest 385 443 34,100 -540 Descending Houston Center
07:26PM 31.8214 -92.8242 219° Southwest 388 447 34,000 -60 Descending Houston Center
07:27PM 31.7381 -92.9044 219° Southwest 387 445 34,000  Level Houston Center
07:28PM 31.6539 -92.9847 219° Southwest 388 447 34,000  Level Houston Center
07:29PM 31.5714 -93.0653 220° Southwest 387 445 34,000  Level Houston Center
07:30PM 31.4706 -93.1617 219° Southwest 392 451 34,000  Level Houston Center
07:31PM 31.3861 -93.2428 219° Southwest 393 452 34,000  Level Houston Center
07:32PM 31.3097 -93.3156 219° Southwest 391 450 34,000  Level Houston Center
07:33PM 31.2181 -93.4036 219° Southwest 391 450 34,000  Level Houston Center
07:34PM 31.1333 -93.4847 219° Southwest 393 452 34,000 -480 Level Houston Center
07:35PM 31.0494 -93.5636 219° Southwest 392 451 33,100 -1,320 Descending Houston Center
07:36PM 30.9661 -93.6436 219° Southwest 390 449 31,300 -2,340 Descending Houston Center
07:37PM 30.8644 -93.7389 219° Southwest 392 451 28,400 -2,640 Descending Houston Center
07:38PM 30.7781 -93.8197 219° Southwest 399 459 26,000 -2,280 Descending Houston Center
07:39PM 30.6908 -93.9025 219° Southwest 406 467 23,800 -2,160 Descending Houston Center
07:40PM 30.6025 -93.9853 219° Southwest 410 472 21,600 -2,160 Descending Houston Center
07:41PM 30.5172 -94.0653 219° Southwest 403 464 19,400 -2,220 Descending Houston Center
07:42PM 30.4250 -94.1503 218° Southwest 379 436 17,200 -2,100 Descending Houston Center
07:43PM 30.3547 -94.2172 219° Southwest 375 432 15,200 -2,160 Descending Houston Center
07:44PM 30.2606 -94.3053 219° Southwest 367 422 12,700 -1,620 Descending Houston Center
07:45PM 30.1956 -94.3900 228° Southwest 363 418 12,000 -360 Descending Houston Center
07:46PM 30.1733 -94.5044 257° West 361 415 12,000  Level Houston Center
07:47PM 30.1542 -94.6181 259° West 362 417 12,000  Level Houston Center
07:48PM 30.1325 -94.7453 259° West 360 414 12,000 -60 Level Houston Center
07:49PM 30.1117 -94.8567 258° West 361 415 11,900 -660 Descending Houston Center
07:50PM 30.1061 -94.9542 266° West 286 329 10,700 -1,560 Descending Houston Center
07:51PM 30.1056 -95.0386 270° West 254 292 8,800 -1,860 Descending Houston Center
07:52PM 30.1061 -95.1289 270° West 262 302 6,900 -1,380 Descending Houston Center
07:53PM 30.1064 -95.2139 270° West 263 303 6,000 -480 Descending Houston Center
07:54PM 30.1067 -95.3014 270° West 270 311 6,000 -480 Level Houston Center
07:56PM 30.1075 -95.3875 271° West 270 311 5,100 -1,080 Descending Houston Center
07:57PM 30.1064 -95.4611 269° West 240 276 3,900 -1,080 Descending Houston Center
07:58PM 30.0647 -95.5014 220° Southwest 232 267 3,000 -900 Descending Houston Center